createdAt,value
2019-02-02T00:02:10.754Z,39.80
2019-02-02T00:04:38.332Z,40.80
2019-02-02T00:07:05.947Z,40.57
2019-02-02T00:09:33.586Z,38.37
2019-02-02T00:12:01.203Z,43.07
2019-02-02T00:14:28.797Z,39.40
2019-02-02T00:16:56.775Z,42.93
2019-02-02T00:19:24.389Z,39.50
2019-02-02T00:21:52.273Z,41.23
2019-02-02T00:24:20.266Z,41.07
2019-02-02T00:26:48.258Z,38.20
2019-02-02T00:29:15.816Z,38.97
2019-02-02T00:31:43.468Z,37.50
2019-02-02T00:34:11.628Z,37.13
2019-02-02T00:36:39.537Z,40.70
2019-02-02T00:39:08.244Z,33.90
2019-02-02T00:41:36.241Z,40.17
2019-02-02T00:44:04.189Z,37.37
2019-02-02T00:46:31.742Z,31.03
2019-02-02T00:48:59.717Z,36.90
2019-02-02T00:51:27.339Z,35.03
2019-02-02T00:53:54.970Z,40.80
2019-02-02T00:56:22.591Z,41.70
2019-02-02T00:58:50.209Z,41.73
2019-02-02T01:01:17.883Z,38.67
2019-02-02T01:03:45.871Z,37.20
2019-02-02T01:06:13.934Z,32.73
2019-02-02T01:08:41.517Z,31.77
2019-02-02T01:11:09.077Z,38.40
2019-02-02T01:13:37.094Z,38.53
2019-02-02T01:16:05.717Z,37.65
2019-02-02T01:18:33.719Z,35.63
2019-02-02T01:21:01.569Z,34.57
2019-02-02T01:23:29.219Z,37.03
2019-02-02T01:25:56.826Z,33.97
2019-02-02T01:28:24.426Z,35.60
2019-02-02T01:30:52.063Z,36.90
2019-02-02T01:33:20.312Z,33.27
2019-02-02T01:35:48.313Z,36.40
2019-02-02T01:38:16.269Z,34.53
2019-02-02T01:40:44.271Z,30.30
2019-02-02T01:43:11.907Z,37.03
2019-02-02T01:45:39.436Z,33.37
2019-02-02T01:48:07.104Z,28.90
2019-02-02T01:50:35.080Z,28.33
2019-02-02T01:53:02.658Z,28.10
2019-02-02T01:55:30.328Z,29.67
2019-02-02T01:57:57.876Z,29.93
2019-02-02T02:00:32.502Z,33.57
2019-02-02T02:03:00.289Z,35.70
2019-02-02T02:05:28.253Z,27.43
2019-02-02T02:07:55.833Z,33.27
2019-02-02T02:10:23.777Z,33.37
2019-02-02T02:12:51.706Z,29.60
2019-02-02T02:15:19.696Z,24.23
2019-02-02T02:17:47.271Z,26.47
2019-02-02T02:20:15.592Z,27.60
2019-02-02T02:22:43.646Z,26.47
2019-02-02T02:25:12.072Z,28.17
2019-02-02T02:27:39.646Z,21.97
2019-02-02T02:30:08.765Z,26.20
2019-02-02T02:32:36.809Z,23.17
2019-02-02T02:35:05.488Z,18.57
2019-02-02T02:37:33.102Z,19.27
2019-02-02T02:40:00.754Z,18.60
2019-02-02T02:42:28.316Z,19.80
2019-02-02T02:44:56.384Z,16.53
2019-02-02T02:47:30.729Z,17.63
2019-02-02T02:49:58.365Z,15.17
2019-02-02T02:52:25.934Z,15.17
2019-02-02T02:54:53.936Z,16.97
2019-02-02T02:57:22.010Z,17.13
2019-02-02T02:59:49.548Z,15.97
2019-02-02T03:02:17.238Z,12.53
2019-02-02T03:04:44.855Z,12.50
2019-02-02T03:07:12.415Z,14.40
2019-02-02T03:09:40.016Z,11.87
2019-02-02T03:12:07.621Z,13.03
2019-02-02T03:14:35.619Z,13.30
2019-02-02T03:17:03.278Z,12.23
2019-02-02T03:19:31.278Z,9.83
2019-02-02T03:21:58.811Z,7.90
2019-02-02T03:24:26.445Z,9.37
2019-02-02T03:26:54.442Z,10.80
2019-02-02T03:29:22.424Z,10.00
2019-02-02T03:31:50.022Z,7.43
2019-02-02T03:34:18.074Z,11.73
2019-02-02T03:36:45.730Z,9.67
2019-02-02T03:39:13.309Z,7.60
2019-02-02T03:41:41.262Z,11.93
2019-02-02T03:44:08.926Z,8.20
2019-02-02T03:46:36.493Z,7.60
2019-02-02T03:49:04.169Z,10.60
2019-02-02T03:51:32.123Z,11.57
2019-02-02T03:54:08.455Z,14.93
2019-02-02T03:56:29.350Z,10.23
2019-02-02T03:59:06.266Z,7.40
2019-02-02T04:01:26.541Z,9.83
2019-02-02T04:03:54.642Z,9.07
2019-02-02T04:06:22.277Z,12.23
2019-02-02T04:08:50.201Z,10.17
2019-02-02T04:11:17.965Z,9.17
2019-02-02T04:13:45.953Z,12.73
2019-02-02T04:16:13.516Z,9.40
2019-02-02T04:18:41.088Z,10.50
2019-02-02T04:21:09.032Z,12.63
2019-02-02T04:23:36.622Z,13.67
2019-02-02T04:26:05.182Z,13.40
2019-02-02T04:28:32.768Z,17.90
2019-02-02T04:31:00.335Z,16.80
2019-02-02T04:33:28.263Z,17.10
2019-02-02T04:35:55.848Z,17.47
2019-02-02T04:38:23.533Z,19.50
2019-02-02T04:40:51.106Z,21.23
2019-02-02T04:43:18.656Z,21.93
2019-02-02T04:45:46.313Z,42.60
2019-02-02T04:48:13.897Z,67.57
2019-02-02T04:50:41.533Z,52.07
2019-02-02T04:53:09.220Z,18.80
2019-02-02T04:55:36.826Z,11.93
2019-02-02T04:58:05.208Z,11.15
2019-02-02T05:00:33.267Z,9.77
2019-02-02T05:03:00.842Z,9.40
2019-02-02T05:05:29.077Z,7.67
2019-02-02T05:07:56.684Z,9.83
2019-02-02T05:10:24.914Z,9.40
2019-02-02T05:12:52.840Z,8.47
2019-02-02T05:15:20.829Z,6.17
2019-02-02T05:17:48.490Z,8.17
2019-02-02T05:20:16.997Z,6.63
2019-02-02T05:22:44.568Z,7.33
2019-02-02T05:25:12.411Z,11.67
2019-02-02T05:27:40.004Z,8.67
2019-02-02T05:30:09.209Z,6.77
2019-02-02T05:32:37.117Z,5.80
2019-02-02T05:35:06.784Z,5.67
2019-02-02T05:37:34.412Z,6.83
2019-02-02T05:40:02.401Z,7.03
2019-02-02T05:42:30.429Z,6.37
2019-02-02T05:44:58.094Z,6.43
2019-02-02T05:47:26.174Z,6.20
2019-02-02T05:49:55.138Z,10.47
2019-02-02T05:52:22.724Z,7.87
2019-02-02T05:54:50.301Z,7.13
2019-02-02T05:57:17.850Z,7.40
2019-02-02T05:59:52.434Z,7.40
2019-02-02T06:02:15.110Z,7.27
2019-02-02T06:04:42.705Z,7.47
2019-02-02T06:07:10.766Z,7.10
2019-02-02T06:09:38.304Z,5.93
2019-02-02T06:12:06.557Z,5.47
2019-02-02T06:14:34.153Z,6.20
2019-02-02T06:19:52.938Z,3.37
2019-02-02T06:22:20.516Z,5.60
2019-02-02T06:24:48.401Z,6.93
2019-02-02T06:27:15.992Z,7.17
2019-02-02T06:29:43.885Z,8.50
2019-02-02T06:32:12.286Z,8.90
2019-02-02T06:34:40.611Z,7.10
2019-02-02T06:37:08.557Z,7.43
2019-02-02T06:39:36.148Z,7.70
2019-02-02T06:42:03.856Z,4.40
2019-02-02T06:44:31.402Z,8.70
2019-02-02T06:46:58.972Z,7.93
2019-02-02T06:49:26.936Z,8.27
2019-02-02T06:51:54.562Z,8.43
2019-02-02T06:54:22.111Z,5.87
2019-02-02T06:56:50.222Z,7.17
2019-02-02T06:59:18.274Z,6.77
2019-02-02T07:01:45.953Z,7.90
2019-02-02T07:04:13.971Z,9.73
2019-02-02T07:06:42.055Z,8.40
2019-02-02T07:09:09.588Z,10.07
2019-02-02T07:11:37.274Z,9.17
2019-02-02T07:14:05.818Z,10.15
2019-02-02T07:16:33.438Z,9.97
2019-02-02T07:19:01.042Z,9.00
2019-02-02T07:21:28.609Z,9.83
2019-02-02T07:23:56.565Z,7.37
2019-02-02T07:26:24.185Z,10.87
2019-02-02T07:28:51.756Z,8.47
2019-02-02T07:31:19.304Z,7.20
2019-02-02T07:33:46.923Z,10.53
2019-02-02T07:36:14.461Z,9.07
2019-02-02T07:38:46.307Z,10.83
2019-02-02T07:41:13.906Z,9.43
2019-02-02T07:43:41.459Z,9.27
2019-02-02T07:46:14.981Z,9.90
2019-02-02T07:48:38.731Z,11.23
2019-02-02T07:51:06.296Z,13.53
2019-02-02T07:53:33.905Z,8.40
2019-02-02T07:56:01.914Z,9.77
2019-02-02T07:58:29.449Z,9.47
2019-02-02T08:00:57.028Z,12.10
2019-02-02T08:03:24.604Z,9.33
2019-02-02T08:05:52.290Z,12.27
2019-02-02T08:08:19.928Z,18.23
2019-02-02T08:10:47.489Z,16.27
2019-02-02T08:13:15.072Z,16.00
2019-02-02T08:15:42.687Z,15.10
2019-02-02T08:18:10.289Z,14.60
2019-02-02T08:20:37.867Z,12.30
2019-02-02T08:23:05.840Z,12.87
2019-02-02T08:25:33.441Z,13.40
2019-02-02T08:28:00.970Z,13.90
2019-02-02T08:30:29.648Z,14.23
2019-02-02T08:32:57.273Z,13.57
2019-02-02T08:35:25.220Z,13.43
2019-02-02T08:37:52.823Z,14.50
2019-02-02T08:40:20.426Z,15.37
2019-02-02T08:42:48.036Z,12.63
2019-02-02T08:45:15.987Z,11.00
2019-02-02T08:47:43.625Z,17.73
2019-02-02T08:50:12.943Z,13.07
2019-02-02T08:52:40.858Z,16.60
2019-02-02T08:55:08.565Z,14.33
2019-02-02T08:57:36.215Z,16.10
2019-02-02T09:00:05.707Z,13.70
2019-02-02T09:02:33.314Z,17.13
2019-02-02T09:05:01.477Z,16.83
2019-02-02T09:07:29.378Z,15.00
2019-02-02T09:09:56.927Z,17.17
2019-02-02T09:12:24.542Z,16.83
2019-02-02T09:14:52.198Z,16.50
2019-02-02T09:17:20.285Z,20.37
2019-02-02T09:19:48.209Z,17.87
2019-02-02T09:22:16.246Z,23.70
2019-02-02T09:24:43.964Z,23.67
2019-02-02T09:27:11.922Z,17.00
2019-02-02T09:32:37.425Z,19.90
2019-02-02T09:35:07.453Z,26.70
2019-02-02T09:37:36.402Z,28.27
2019-02-02T09:40:05.894Z,20.80
2019-02-02T09:42:33.475Z,16.67
2019-02-02T09:45:01.099Z,18.20
2019-02-02T09:47:28.683Z,14.33
2019-02-02T09:49:56.240Z,16.67
2019-02-02T09:52:23.796Z,21.60
2019-02-02T09:54:51.814Z,23.03
2019-02-02T09:57:19.789Z,20.00
2019-02-02T09:59:47.421Z,18.07
2019-02-02T10:02:15.037Z,24.87
2019-02-02T10:04:47.020Z,17.77
2019-02-02T10:07:22.708Z,22.97
2019-02-02T10:12:43.234Z,20.90
2019-02-02T10:15:10.995Z,20.53
2019-02-02T10:17:38.765Z,15.70
2019-02-02T10:20:13.984Z,19.10
2019-02-02T10:22:41.775Z,21.90
2019-02-02T10:25:10.972Z,25.97
2019-02-02T10:27:40.481Z,19.33
2019-02-02T10:30:09.768Z,19.73
2019-02-02T10:32:52.797Z,18.10
2019-02-02T10:35:20.565Z,18.70
2019-02-02T10:37:48.342Z,23.17
2019-02-02T10:40:16.206Z,17.37
2019-02-02T10:43:07.208Z,23.50
2019-02-02T10:45:34.836Z,21.63
2019-02-02T10:48:02.384Z,21.53
2019-02-02T10:50:30.708Z,19.77
2019-02-02T10:52:58.476Z,19.87
2019-02-02T10:55:26.140Z,20.87
2019-02-02T10:57:54.871Z,24.27
2019-02-02T11:00:26.476Z,21.77
2019-02-02T11:02:54.253Z,20.57
2019-02-02T11:05:21.809Z,21.40
2019-02-02T11:07:49.533Z,20.63
2019-02-02T11:10:41.464Z,27.77
2019-02-02T11:13:09.362Z,108.77
2019-02-02T11:15:37.166Z,783.73
2019-02-02T11:18:05.482Z,536.00
2019-02-02T11:20:34.162Z,134.90
2019-02-02T11:23:01.859Z,666.20
2019-02-02T11:25:29.627Z,160.83
2019-02-02T11:27:57.770Z,40.73
2019-02-02T11:30:25.604Z,34.27
2019-02-02T11:32:53.718Z,23.87
2019-02-02T11:35:21.744Z,23.93
2019-02-02T11:37:49.361Z,18.97
2019-02-02T11:40:21.336Z,17.00
2019-02-02T11:42:49.013Z,16.03
2019-02-02T11:45:16.786Z,16.10
2019-02-02T11:47:44.552Z,19.77
2019-02-02T11:50:13.848Z,20.77
2019-02-02T11:52:41.620Z,38.00
2019-02-02T11:55:10.508Z,23.80
2019-02-02T11:57:38.278Z,24.27
2019-02-02T12:00:16.226Z,30.90
2019-02-02T12:02:49.563Z,17.80
2019-02-02T12:05:12.103Z,17.90
2019-02-02T12:07:39.884Z,18.20
2019-02-02T12:10:09.171Z,16.93
2019-02-02T12:12:36.855Z,15.93
2019-02-02T12:15:05.972Z,15.27
2019-02-02T12:17:33.624Z,17.23
2019-02-02T12:20:01.381Z,14.63
2019-02-02T12:22:29.149Z,13.30
2019-02-02T12:24:56.801Z,8.80
2019-02-02T12:27:24.478Z,18.77
2019-02-02T12:29:52.239Z,12.67
2019-02-02T12:32:26.654Z,14.47
2019-02-02T12:34:49.200Z,16.73
2019-02-02T12:37:16.862Z,11.70
2019-02-02T12:39:44.532Z,18.00
2019-02-02T12:42:12.304Z,15.93
2019-02-02T12:44:40.065Z,11.77
2019-02-02T12:47:07.722Z,16.47
2019-02-02T12:49:35.260Z,9.90
2019-02-02T12:52:02.964Z,12.83
2019-02-02T12:54:30.623Z,20.70
2019-02-02T12:56:58.187Z,16.50
2019-02-02T12:59:27.736Z,16.27
2019-02-02T13:01:55.344Z,15.80
2019-02-02T13:04:23.004Z,16.77
2019-02-02T13:06:52.205Z,15.17
2019-02-02T13:09:20.081Z,13.03
2019-02-02T13:11:47.703Z,14.27
2019-02-02T13:14:15.317Z,16.00
2019-02-02T13:16:42.964Z,13.90
2019-02-02T13:19:10.542Z,15.30
2019-02-02T13:21:38.183Z,15.90
2019-02-02T13:24:05.853Z,17.50
2019-02-02T13:26:33.532Z,16.93
2019-02-02T13:29:01.185Z,13.47
2019-02-02T13:31:28.944Z,13.77
2019-02-02T13:33:56.639Z,15.30
2019-02-02T13:36:24.239Z,16.50
2019-02-02T13:38:52.048Z,15.47
2019-02-02T13:41:19.701Z,14.70
2019-02-02T13:43:47.449Z,14.00
2019-02-02T13:46:15.130Z,25.00
2019-02-02T13:48:42.808Z,14.63
2019-02-02T13:51:10.421Z,17.03
2019-02-02T13:53:38.152Z,17.63
2019-02-02T13:56:05.831Z,30.20
2019-02-02T13:58:33.433Z,14.90
2019-02-02T14:01:02.225Z,15.40
2019-02-02T14:03:30.015Z,16.37
2019-02-02T14:05:57.785Z,20.90
2019-02-02T14:08:25.434Z,17.10
2019-02-02T14:10:53.314Z,13.93
2019-02-02T14:13:21.072Z,17.07
2019-02-02T14:15:48.746Z,21.13
2019-02-02T14:18:16.695Z,15.88
2019-02-02T14:20:44.237Z,15.43
2019-02-02T14:23:12.234Z,16.10
2019-02-02T14:25:40.158Z,15.00
2019-02-02T14:28:08.106Z,14.73
2019-02-02T14:31:00.704Z,12.87
2019-02-02T14:33:28.381Z,14.87
2019-02-02T14:35:56.046Z,17.20
2019-02-02T14:38:23.814Z,58.13
2019-02-02T14:40:51.355Z,18.47
2019-02-02T14:43:19.046Z,14.10
2019-02-02T14:45:46.717Z,11.27
2019-02-02T14:48:14.361Z,19.50
2019-02-02T14:50:42.215Z,19.70
2019-02-02T14:53:09.928Z,16.67
2019-02-02T14:55:37.560Z,17.43
2019-02-02T14:58:05.443Z,18.70
2019-02-02T15:00:33.361Z,18.50
2019-02-02T15:03:03.223Z,23.37
2019-02-02T15:05:42.093Z,43.77
2019-02-02T15:07:59.741Z,30.43
2019-02-02T15:10:27.445Z,20.10
2019-02-02T15:12:55.422Z,109.97
2019-02-02T15:15:23.047Z,34.60
2019-02-02T15:17:50.739Z,23.80
2019-02-02T15:20:22.165Z,20.63
2019-02-02T15:22:48.928Z,123.03
2019-02-02T15:25:16.688Z,38.83
2019-02-02T15:27:44.458Z,21.87
2019-02-02T15:30:16.329Z,66.53
2019-02-02T15:32:43.990Z,25.73
2019-02-02T15:35:14.170Z,24.97
2019-02-02T15:37:40.947Z,27.53
2019-02-02T15:40:13.116Z,30.57
2019-02-02T15:42:40.776Z,23.43
2019-02-02T15:45:12.852Z,98.67
2019-02-02T15:47:40.479Z,75.60
2019-02-02T15:50:10.021Z,182.07
2019-02-02T15:52:50.502Z,109.03
2019-02-02T15:55:18.899Z,36.57
2019-02-02T15:57:46.623Z,32.83
2019-02-02T16:00:20.743Z,38.53
2019-02-02T16:02:48.389Z,50.17
2019-02-02T16:05:16.772Z,88.83
2019-02-02T16:07:44.457Z,21.67
2019-02-02T16:10:15.362Z,31.83
2019-02-02T16:12:42.727Z,53.90
2019-02-02T16:15:10.421Z,64.60
2019-02-02T16:17:38.051Z,28.67
2019-02-02T16:20:42.582Z,28.40
2019-02-02T16:23:10.264Z,16.20
2019-02-02T16:25:38.032Z,23.87
2019-02-02T16:28:05.673Z,28.53
2019-02-02T16:30:33.453Z,15.33
2019-02-02T16:33:01.104Z,12.13
2019-02-02T16:35:28.985Z,13.23
2019-02-02T16:37:56.577Z,16.47
2019-02-02T16:40:27.896Z,20.63
2019-02-02T16:42:55.472Z,15.77
2019-02-02T16:45:24.143Z,13.73
2019-02-02T16:48:30.107Z,15.03
2019-02-02T16:50:57.793Z,33.30
2019-02-02T16:53:25.437Z,14.73
2019-02-02T16:55:53.413Z,17.87
2019-02-02T16:58:21.169Z,15.47
2019-02-02T17:00:48.712Z,19.00
2019-02-02T17:03:16.403Z,16.27
2019-02-02T17:05:43.941Z,12.33
2019-02-02T17:08:11.725Z,16.87
2019-02-02T17:10:39.371Z,14.00
2019-02-02T17:13:07.149Z,22.67
2019-02-02T17:15:34.817Z,15.47
2019-02-02T17:18:02.580Z,14.10
2019-02-02T17:20:31.954Z,11.40
2019-02-02T17:22:59.673Z,11.73
2019-02-02T17:25:27.310Z,11.77
2019-02-02T17:27:55.186Z,14.70
2019-02-02T17:30:23.762Z,12.63
2019-02-02T17:32:51.749Z,17.00
2019-02-02T17:35:19.504Z,24.87
2019-02-02T17:37:47.381Z,75.53
2019-02-02T17:40:16.586Z,93.17
2019-02-02T17:42:44.317Z,39.57
2019-02-02T17:45:13.336Z,40.33
2019-02-02T17:47:41.093Z,226.27
2019-02-02T17:50:10.383Z,209.10
2019-02-02T17:53:05.303Z,440.33
2019-02-02T17:55:32.948Z,118.17
2019-02-02T17:58:00.731Z,525.73
2019-02-02T18:00:31.257Z,250.37
2019-02-02T18:02:58.875Z,194.80
2019-02-02T18:05:26.593Z,191.20
2019-02-02T18:07:54.213Z,303.00
2019-02-02T18:10:22.121Z,404.90
2019-02-02T18:12:49.881Z,378.17
2019-02-02T18:15:17.566Z,627.60
2019-02-02T18:17:45.315Z,122.30
2019-02-02T18:20:14.101Z,208.50
2019-02-02T18:22:41.768Z,577.67
2019-02-02T18:25:10.758Z,764.73
2019-02-02T18:27:38.478Z,349.67
2019-02-02T18:30:13.873Z,143.57
2019-02-02T18:32:41.641Z,146.23
2019-02-02T18:35:10.437Z,288.10
2019-02-02T18:37:38.105Z,184.97
2019-02-02T18:40:07.594Z,337.20
2019-02-02T18:42:35.260Z,162.23
2019-02-02T18:45:02.926Z,242.53
2019-02-02T18:47:30.585Z,40.73
2019-02-02T18:49:58.216Z,43.20
2019-02-02T18:52:26.023Z,29.00
2019-02-02T18:54:53.679Z,31.73
2019-02-02T18:57:21.338Z,35.23
2019-02-02T18:59:49.106Z,23.07
2019-02-02T19:02:16.774Z,34.67
2019-02-02T19:04:44.416Z,82.00
2019-02-02T19:07:12.288Z,141.30
2019-02-02T19:09:39.970Z,63.63
2019-02-02T19:12:07.735Z,26.63
2019-02-02T19:14:56.180Z,22.83
2019-02-02T19:17:23.827Z,26.33
2019-02-02T19:19:51.525Z,22.97
2019-02-02T19:22:19.151Z,26.87
2019-02-02T19:24:46.733Z,29.90
2019-02-02T19:27:14.393Z,27.80
2019-02-02T19:29:41.972Z,28.07
2019-02-02T19:32:09.520Z,29.87
2019-02-02T19:34:37.100Z,31.03
2019-02-02T19:37:04.844Z,29.10
2019-02-02T19:39:32.500Z,31.17
2019-02-02T19:42:00.282Z,45.80
2019-02-02T19:44:28.044Z,29.97
2019-02-02T19:46:55.608Z,30.60
2019-02-02T19:49:23.379Z,30.27
2019-02-02T19:51:51.240Z,42.43
2019-02-02T19:54:18.884Z,37.47
2019-02-02T19:56:46.670Z,36.13
2019-02-02T19:59:14.639Z,36.43
2019-02-02T20:01:42.317Z,36.93
2019-02-02T20:04:10.077Z,34.97
2019-02-02T20:06:37.760Z,29.67
2019-02-02T20:09:06.312Z,88.07
2019-02-02T20:11:33.976Z,53.07
2019-02-02T20:14:01.742Z,43.90
2019-02-02T20:16:29.511Z,48.17
2019-02-02T20:18:57.170Z,75.03
2019-02-02T20:21:24.941Z,62.00
2019-02-02T20:23:52.717Z,55.97
2019-02-02T20:26:20.378Z,45.47
2019-02-02T20:28:48.029Z,45.73
2019-02-02T20:31:15.693Z,41.90
2019-02-02T20:33:43.566Z,37.47
2019-02-02T20:36:42.261Z,54.23
2019-02-02T20:39:33.248Z,41.57
2019-02-02T20:42:00.924Z,64.57
2019-02-02T20:44:28.692Z,47.10
2019-02-02T20:46:56.344Z,68.17
2019-02-02T20:49:23.992Z,87.67
2019-02-02T20:51:51.676Z,76.73
2019-02-02T20:54:19.352Z,61.77
2019-02-02T20:56:47.004Z,60.07
2019-02-02T20:59:14.672Z,54.67
2019-02-02T21:01:42.218Z,43.90
2019-02-02T21:04:09.836Z,54.10
2019-02-02T21:06:37.868Z,50.23
2019-02-02T21:09:06.250Z,58.40
2019-02-02T21:11:34.008Z,54.63
2019-02-02T21:14:01.664Z,64.07
2019-02-02T21:16:29.448Z,55.23
2019-02-02T21:18:57.209Z,53.00
2019-02-02T21:21:24.885Z,39.90
2019-02-02T21:23:54.824Z,45.30
2019-02-02T21:26:21.940Z,49.67
2019-02-02T21:28:50.757Z,31.53
2019-02-02T21:31:18.707Z,29.57
2019-02-02T21:33:46.347Z,41.37
2019-02-02T21:36:14.012Z,41.93
2019-02-02T21:38:41.684Z,40.20
2019-02-02T21:41:09.448Z,30.37
2019-02-02T21:43:37.012Z,29.00
2019-02-02T21:46:05.396Z,24.20
2019-02-02T21:48:36.010Z,24.03
2019-02-02T21:51:02.360Z,24.07
2019-02-02T21:53:29.931Z,29.17
2019-02-02T21:55:57.600Z,24.67
2019-02-02T21:58:25.244Z,27.20
2019-02-02T22:00:52.985Z,30.87
2019-02-02T22:03:20.568Z,31.10
2019-02-02T22:05:48.227Z,26.67
2019-02-02T22:08:16.012Z,48.97
2019-02-02T22:10:43.681Z,56.37
2019-02-02T22:13:11.442Z,55.13
2019-02-02T22:15:39.100Z,104.67
2019-02-02T22:18:06.764Z,51.37
2019-02-02T22:20:34.427Z,203.17
2019-02-02T22:23:01.975Z,83.80
2019-02-02T22:25:30.572Z,80.37
2019-02-02T22:27:58.347Z,80.10
2019-02-02T22:30:27.953Z,81.97
2019-02-02T22:32:55.720Z,60.20
2019-02-02T22:35:23.255Z,55.03
2019-02-02T22:37:50.945Z,59.47
2019-02-02T22:40:22.397Z,61.00
2019-02-02T22:42:50.159Z,54.00
2019-02-02T22:45:18.314Z,52.47
2019-02-02T22:47:45.996Z,62.33
2019-02-02T22:50:14.784Z,66.97
2019-02-02T22:52:42.863Z,59.97
2019-02-02T22:55:11.708Z,46.47
2019-02-02T22:57:39.399Z,49.87
2019-02-02T23:00:11.256Z,43.10
2019-02-02T23:02:38.941Z,38.37
2019-02-02T23:05:08.146Z,39.67
2019-02-02T23:07:37.243Z,43.97
2019-02-02T23:10:07.057Z,44.45
2019-02-02T23:12:42.293Z,39.97
2019-02-02T23:15:11.608Z,69.17
2019-02-02T23:17:39.572Z,94.90
2019-02-02T23:20:08.161Z,66.10
2019-02-02T23:22:35.808Z,62.63
2019-02-02T23:25:04.812Z,61.33
2019-02-02T23:27:32.472Z,55.10
2019-02-02T23:30:00.020Z,59.67
2019-02-02T23:32:27.798Z,61.80
2019-02-02T23:34:55.471Z,71.50
2019-02-02T23:37:23.113Z,85.40
2019-02-02T23:39:50.896Z,99.43
2019-02-02T23:42:37.094Z,86.70
2019-02-02T23:45:06.498Z,108.80
2019-02-02T23:47:34.260Z,98.53
2019-02-02T23:50:02.033Z,96.77
2019-02-02T23:52:29.694Z,208.53
2019-02-02T23:54:57.461Z,193.10
2019-02-02T23:57:25.327Z,87.10
2019-02-02T23:59:53.294Z,95.90
